Flight Track Log - Related Links

Times and Time Zones

All times are in EDT time to prevent confusion due to time zone crossing. See the UAL563 flight status page for this flight to view local times or setup timezone preferences in your user account.

Time Position Orientation Groundspeed Altitude Reporting Facility
EDT Latitude Longitude Course Direction KTS MPH feet Rate Location/Type
Wed 10:16:46 PM 29.9592 -95.3392 205° Southwest 211 243 1,000  Level Houston Center
Wed 10:17:29 PM 29.9375 -95.3078 129° Southeast 171 197 2,300 1,902 Climbing Houston Center
Wed 10:18:08 PM 29.9111 -95.2722 131° Southeast 210 242 3,600 1,522 Climbing Houston Center
Wed 10:18:36 PM 29.8875 -95.2442 134° Southeast 244 281 4,000 984 Climbing Houston Center
Wed 10:19:00 PM 29.6878 -95.4952 209° Southwest  Level FlightAware Approximate
Wed 10:19:09 PM 29.8644 -95.2089 127° Southeast 249 287 4,600  Level Houston Center
Wed 10:19:37 PM 29.8394 -95.1800 135° Southeast 276 318 6,200 3,836 Climbing Houston Center
Wed 10:20:00 PM 29.5913 -95.5548 206° Southwest  Level FlightAware Approximate
Wed 10:20:10 PM 29.8083 -95.1622 154° Southeast 261 300 8,500  Level Houston Center
Wed 10:21:00 PM 29.4927 -95.6096 206° Southwest  Level FlightAware Approximate
Wed 10:21:11 PM 29.7425 -95.2100 212° Southwest 297 342 10,500  Level Houston Center
Wed 10:22:00 PM 29.3938 -95.6636 205° Southwest  Level FlightAware Approximate
Wed 10:22:12 PM 29.6736 -95.2869 224° Southwest 354 407 13,000  Level Houston Center
Wed 10:23:14 PM 29.6014 -95.3608 222° Southwest 357 411 17,800 3,610 Climbing Houston Center
Wed 10:24:15 PM 29.5369 -95.4306 223° Southwest 327 376 20,400 2,410 Climbing Houston Center
Wed 10:25:16 PM 29.4669 -95.5056 223° Southwest 342 394 22,700 2,262 Climbing Houston Center
Wed 10:26:17 PM 29.3719 -95.6072 223° Southwest 394 453 25,000 1,623 Climbing Houston Center
Wed 10:27:18 PM 29.2869 -95.6942 222° Southwest 406 467 26,000 1,131 Climbing Houston Center
Wed 10:28:19 PM 29.1989 -95.7869 223° Southwest 427 491 27,300 1,131 Climbing Houston Center
Wed 10:29:20 PM 29.1419 -95.9061 241° Southwest 433 498 28,300 885 Climbing Houston Center
Wed 10:30:21 PM 29.1639 -96.0442 280° West 428 493 29,100 1,033 Climbing Houston Center
Wed 10:31:22 PM 29.1922 -96.1786 284° West 434 499 30,400 1,180 Climbing Houston Center
Wed 10:32:23 PM 29.2189 -96.3100 283° West 428 493 31,500 1,131 Climbing Houston Center
Wed 10:33:24 PM 29.2458 -96.4406 283° West 423 487 32,700 1,033 Climbing Houston Center
Wed 10:34:25 PM 29.2728 -96.5714 283° West 423 487 33,600 1,574 Climbing Houston Center
Wed 10:35:26 PM 29.2992 -96.6964 284° West 407 468 35,900 1,180 Climbing Houston Center
Wed 10:36:27 PM 29.3219 -96.8131 283° West 390 449 36,000 49 Climbing Houston Center
Wed 10:37:28 PM 29.3503 -96.9544 283° West 403 464 36,000 -49 Level Houston Center
Wed 10:38:29 PM 29.3767 -97.0817 283° West 406 467 35,900 -49 Descending Houston Center
Wed 10:39:30 PM 29.4011 -97.2061 283° West 402 463 35,900  Level Houston Center
Wed 10:40:32 PM 29.4258 -97.3300 283° West 401 461 35,900 49 Level Houston Center
Wed 10:41:33 PM 29.4511 -97.4553 283° West 402 463 36,000 49 Climbing Houston Center
Wed 10:42:34 PM 29.4747 -97.5808 282° West 404 465 36,000  Level Houston Center
Wed 10:43:35 PM 29.4997 -97.7058 283° West 403 464 36,000  Level Houston Center
Wed 10:44:36 PM 29.5275 -97.8506 282° West 400 460 36,000  Level Houston Center
Wed 10:45:37 PM 29.5517 -97.9753 283° West 401 461 36,000  Level Houston Center
Wed 10:46:38 PM 29.5775 -98.1081 283° West 398 458 36,000  Level Houston Center
Wed 10:47:39 PM 29.6011 -98.2319 282° West 399 459 36,000  Level Houston Center
Wed 10:48:40 PM 29.6264 -98.3569 283° West 405 466 36,000  Level Houston Center
Wed 10:49:41 PM 29.6489 -98.4811 282° West 411 473 36,000  Level Houston Center
Wed 10:50:42 PM 29.6953 -98.6136 292° West 410 472 36,000  Level Houston Center
Wed 10:51:43 PM 29.7342 -98.7333 291° West 402 463 36,000  Level Houston Center
Wed 10:52:45 PM 29.7742 -98.8544 291° West 405 466 36,000  Level Houston Center
Wed 10:53:46 PM 29.8167 -98.9842 291° West 404 465 36,000  Level Houston Center
Wed 10:54:47 PM 29.8536 -99.0975 291° West 407 468 36,000  Level Houston Center
Wed 10:55:48 PM 29.8944 -99.2189 291° West 409 471 36,000 -49 Level Houston Center
Wed 10:56:49 PM 29.9342 -99.3422 290° West 411 473 35,900  Descending Houston Center
Wed 10:57:50 PM 29.9747 -99.4661 291° West 415 478 36,000 49 Climbing Houston Center
Wed 10:58:51 PM 30.0136 -99.5889 290° West 410 472 36,000  Level Houston Center
Wed 10:59:52 PM 30.0525 -99.7119 290° West 410 472 36,000 -49 Level Houston Center
Wed 11:00:53 PM 30.1006 -99.8589 291° West 410 472 35,900  Descending Houston Center
Wed 11:01:54 PM 30.1406 -99.9828 291° West 414 476 36,000 49 Climbing Houston Center
Wed 11:02:55 PM 30.1819 -100.1028 292° West 409 471 36,000  Level Houston Center
Wed 11:03:56 PM 30.2194 -100.2278 289° West 414 476 36,000  Level Houston Center
Wed 11:04:57 PM 30.2581 -100.3531 290° West 427 491 36,000  Level Houston Center
Wed 11:05:59 PM 30.2972 -100.4775 290° West 420 483 36,000  Level Houston Center
Wed 11:07:00 PM 30.3342 -100.5994 289° West 411 473 36,000 -49 Level Houston Center
Wed 11:08:01 PM 30.3722 -100.7239 290° West 411 473 35,900 -49 Descending Houston Center
Wed 11:09:02 PM 30.4181 -100.8711 290° West 408 470 35,900  Level Houston Center
Wed 11:10:03 PM 30.4556 -100.9956 289° West 414 476 35,900  Level Houston Center
Wed 11:11:04 PM 30.4953 -101.1225 290° West 420 483 35,900 49 Level Houston Center
Wed 11:12:05 PM 30.5322 -101.2486 289° West 418 481 36,000 49 Climbing Houston Center
Wed 11:13:06 PM 30.5703 -101.3764 289° West 420 483 36,000  Level Houston Center
Wed 11:14:07 PM 30.6092 -101.5025 290° West 419 482 36,000 -49 Level Houston Center
Wed 11:15:08 PM 30.6469 -101.6339 289° West 419 482 35,900 -49 Descending Houston Center
Wed 11:16:09 PM 30.6878 -101.7594 291° West 418 481 35,900 49 Level Houston Center
Wed 11:17:10 PM 30.7250 -101.8867 289° West 415 478 36,000 49 Climbing Houston Center
Wed 11:18:11 PM 30.7636 -102.0156 289° West 420 483 36,000  Level Houston Center
Wed 11:19:12 PM 30.8022 -102.1425 290° West 418 481 36,000  Level Houston Center
Wed 11:19:35 PM 30.8175 -102.1900 291° West 417 480 36,000 -71 Level Albuquerque Center
Wed 11:20:36 PM 30.8547 -102.3167 289° West 415 478 35,900 -49 Descending Albuquerque Center
Wed 11:21:38 PM 30.8919 -102.4428 289° West 411 473 35,900  Level Albuquerque Center
Wed 11:22:39 PM 30.9294 -102.5697 289° West 410 472 35,900  Level Albuquerque Center
Wed 11:23:41 PM 30.9744 -102.7219 289° West 412 474 35,900 49 Level Albuquerque Center
Wed 11:24:42 PM 31.0117 -102.8525 288° West 418 481 36,000 49 Climbing Albuquerque Center
Wed 11:25:44 PM 31.0492 -102.9808 289° West 419 482 36,000 -49 Level Albuquerque Center
Wed 11:26:45 PM 31.0853 -103.1058 289° West 412 474 35,900  Descending Albuquerque Center
Wed 11:27:47 PM 31.1222 -103.2339 289° West 413 475 36,000  Climbing Albuquerque Center
Wed 11:28:48 PM 31.1583 -103.3636 288° West 418 481 35,900 -49 Descending Albuquerque Center
Wed 11:29:50 PM 31.1947 -103.4903 289° West 413 475 35,900  Level Albuquerque Center
Wed 11:30:51 PM 31.2317 -103.6181 289° West 412 474 35,900  Level Albuquerque Center
Wed 11:31:53 PM 31.2675 -103.7433 289° West 409 471 35,900 49 Level Albuquerque Center
Wed 11:32:54 PM 31.3025 -103.8733 288° West 407 468 36,000 49 Climbing Albuquerque Center
Wed 11:33:56 PM 31.3397 -103.9981 289° West 407 468 36,000 -48 Level Albuquerque Center
Wed 11:34:58 PM 31.3803 -104.1461 288° West 402 463 35,900 -49 Descending Albuquerque Center
Wed 11:35:59 PM 31.4144 -104.2686 288° West 399 459 35,900  Level Albuquerque Center
Wed 11:37:01 PM 31.4486 -104.3939 288° West 403 464 35,900 49 Level Albuquerque Center
Wed 11:38:02 PM 31.4839 -104.5197 288° West 407 468 36,000 49 Climbing Albuquerque Center
Wed 11:39:04 PM 31.5186 -104.6428 288° West 403 464 36,000 -49 Level Albuquerque Center
Wed 11:40:05 PM 31.5528 -104.7686 288° West 405 466 35,900  Descending Albuquerque Center
Wed 11:41:07 PM 31.5933 -104.9189 288° West 406 467 36,000 49 Climbing Albuquerque Center
Wed 11:42:08 PM 31.6278 -105.0442 288° West 406 467 36,000 -49 Level Albuquerque Center
Wed 11:43:10 PM 31.6614 -105.1681 288° West 405 466 35,900 -49 Descending Albuquerque Center
Wed 11:44:11 PM 31.6933 -105.2919 287° West 402 463 35,900  Level Albuquerque Center
Wed 11:45:13 PM 31.7278 -105.4147 288° West 400 460 35,900 49 Level Albuquerque Center
Wed 11:46:14 PM 31.7603 -105.5419 287° West 406 467 36,000 49 Climbing Albuquerque Center
Wed 11:47:16 PM 31.7944 -105.6675 288° West 406 467 36,000 -49 Level Albuquerque Center
Wed 11:48:17 PM 31.8281 -105.7958 287° West 412 474 35,900  Descending Albuquerque Center
Wed 11:49:18 PM 31.8681 -105.9489 287° West 409 471 36,000 49 Climbing Albuquerque Center
Wed 11:50:20 PM 31.9039 -106.0828 288° West 413 475 36,000  Level Albuquerque Center
Wed 11:51:21 PM 31.9369 -106.2122 287° West 413 475 36,000 -49 Level Albuquerque Center
Wed 11:52:23 PM 31.9714 -106.3419 287° West 416 479 35,900  Descending Albuquerque Center
Wed 11:53:24 PM 32.0022 -106.4717 286° West 413 475 36,000 49 Climbing Albuquerque Center
Wed 11:54:25 PM 32.0347 -106.6011 287° West 412 474 36,000  Level Albuquerque Center
Wed 11:55:27 PM 32.0664 -106.7297 286° West 409 471 36,000 -49 Level Albuquerque Center
Wed 11:56:28 PM 32.0981 -106.8575 286° West 404 465 35,900  Descending Albuquerque Center
Wed 11:57:29 PM 32.1283 -106.9856 286° West 405 466 36,000 49 Climbing Albuquerque Center
Wed 11:58:31 PM 32.1589 -107.1144 286° West 406 467 36,000  Level Albuquerque Center
Wed 11:59:32 PM 32.1894 -107.2406 286° West 406 467 36,000  Level Albuquerque Center
Thu 12:00:33 AM 32.2236 -107.3947 285° West 408 470 36,000  Level Albuquerque Center
Thu 12:01:34 AM 32.2536 -107.5200 286° West 404 465 36,000 -49 Level Albuquerque Center
Thu 12:02:36 AM 32.2864 -107.6519 286° West 396 456 35,900 -49 Descending Albuquerque Center
Thu 12:03:37 AM 32.3181 -107.7778 287° West 398 458 35,900 49 Level Albuquerque Center
Thu 12:04:38 AM 32.3486 -107.9042 286° West 399 459 36,000  Climbing Albuquerque Center
Thu 12:05:39 AM 32.3800 -108.0314 286° West 401 461 35,900  Descending Albuquerque Center
Thu 12:06:41 AM 32.4117 -108.1614 286° West 409 471 36,000 49 Climbing Albuquerque Center
Thu 12:07:42 AM 32.4464 -108.3014 286° West 409 471 36,000  Level Albuquerque Center
Thu 12:08:43 AM 32.4772 -108.4297 286° West 408 470 36,000  Level Albuquerque Center
Thu 12:09:44 AM 32.5092 -108.5589 286° West 411 473 36,000  Level Albuquerque Center
Thu 12:10:45 AM 32.5403 -108.6903 286° West 413 475 36,000  Level Albuquerque Center
Thu 12:11:46 AM 32.5719 -108.8211 286° West 415 478 36,000  Level Albuquerque Center
Thu 12:12:47 AM 32.6031 -108.9536 286° West 417 480 36,000  Level Albuquerque Center
Thu 12:13:48 AM 32.6328 -109.0853 285° West 415 478 36,000  Level Albuquerque Center
Thu 12:14:50 AM 32.6644 -109.2169 286° West 414 476 36,000  Level Albuquerque Center
Thu 12:15:51 AM 32.6961 -109.3494 286° West 417 480 36,000  Level Albuquerque Center
Thu 12:16:52 AM 32.7267 -109.4797 286° West 413 475 36,000  Level Albuquerque Center
Thu 12:17:53 AM 32.7622 -109.6358 285° West 409 471 36,000  Level Albuquerque Center
Thu 12:18:54 AM 32.7925 -109.7647 286° West 409 471 36,000  Level Albuquerque Center
Thu 12:19:55 AM 32.8219 -109.8942 285° West 409 471 36,000  Level Albuquerque Center
Thu 12:20:56 AM 32.8519 -110.0236 285° West 408 470 36,000  Level Albuquerque Center
Thu 12:21:57 AM 32.8842 -110.1550 286° West 414 476 36,000  Level Albuquerque Center
Thu 12:22:58 AM 32.9128 -110.2856 285° West 412 474 36,000  Level Albuquerque Center
Thu 12:23:59 AM 32.9428 -110.4181 285° West 415 478 36,000  Level Albuquerque Center
Thu 12:25:00 AM 32.9722 -110.5506 285° West 416 479 36,000  Level Albuquerque Center
Thu 12:26:01 AM 33.0056 -110.6972 285° West 420 483 36,000  Level Albuquerque Center
Thu 12:27:02 AM 33.0347 -110.8311 285° West 419 482 36,000  Level Albuquerque Center
Thu 12:28:03 AM 33.0636 -110.9631 285° West 414 476 36,000  Level Albuquerque Center
Thu 12:29:05 AM 33.0925 -111.0944 285° West 410 472 36,000  Level Albuquerque Center
Thu 12:30:06 AM 33.1214 -111.2281 285° West 415 478 36,000  Level Albuquerque Center
Thu 12:31:07 AM 33.1503 -111.3614 285° West 415 478 36,000 49 Level Albuquerque Center
Thu 12:32:08 AM 33.1794 -111.4956 285° West 417 480 36,100  Climbing Albuquerque Center
Thu 12:33:09 AM 33.2064 -111.6278 284° West 412 474 36,000 -49 Descending Albuquerque Center
Thu 12:34:10 AM 33.2356 -111.7608 285° West 412 474 36,000  Level Albuquerque Center
Thu 12:35:11 AM 33.2678 -111.9194 284° West 411 473 36,000  Level Albuquerque Center
Thu 12:36:11 AM 33.2964 -112.0514 285° West 410 472 36,000  Level Albuquerque Center
Thu 12:37:12 AM 33.3236 -112.1864 284° West 413 475 36,000  Level Albuquerque Center
Thu 12:38:13 AM 33.3506 -112.3189 284° West 411 473 36,000  Level Albuquerque Center
Thu 12:39:14 AM 33.3775 -112.4506 284° West 408 470 36,000  Level Albuquerque Center
Thu 12:40:15 AM 33.4044 -112.5839 284° West 410 472 36,000  Level Albuquerque Center
Thu 12:41:16 AM 33.4311 -112.7103 284° West 410 472 36,000  Level Albuquerque Center
Thu 12:42:17 AM 33.4564 -112.8431 283° West 412 474 36,000  Level Albuquerque Center
Thu 12:43:18 AM 33.4739 -112.9794 279° West 415 478 36,000 -197 Level Albuquerque Center
Thu 12:44:19 AM 33.4917 -113.1136 279° West 412 474 35,600 -787 Descending Albuquerque Center
Thu 12:45:20 AM 33.5125 -113.2753 279° West 411 473 34,400 -836 Descending Albuquerque Center
Thu 12:46:21 AM 33.5300 -113.4108 279° West 413 475 33,900 -246 Descending Albuquerque Center
Thu 12:47:22 AM 33.5458 -113.5483 278° West 416 479 33,900  Level Albuquerque Center
Thu 12:48:23 AM 33.5639 -113.6842 279° West 416 479 33,900  Level Albuquerque Center
Thu 12:49:23 AM 33.5792 -113.8175 278° West 409 471 33,900  Level Albuquerque Center
Thu 12:50:24 AM 33.5958 -113.9522 278° West 410 472 33,900 49 Level Albuquerque Center
Thu 12:51:25 AM 33.6125 -114.0969 278° West 407 468 34,000 67 Climbing Albuquerque Center
Thu 12:51:53 AM 33.6219 -114.1564 281° West 410 472 34,000  Level Los Angeles Center
Thu 12:52:26 AM 33.6292 -114.2206 278° West 410 472 34,000 -64 Level Albuquerque Center
Thu 12:53:27 AM 33.6442 -114.3558 278° West 411 473 33,900 -67 Descending Albuquerque Center
Thu 12:53:56 AM 33.6533 -114.4269 279° West 410 472 33,900  Level Los Angeles Center
Thu 12:54:57 AM 33.6692 -114.5639 278° West 415 478 33,900 49 Level Los Angeles Center
Thu 12:55:59 AM 33.6864 -114.7019 279° West 419 482 34,000  Climbing Los Angeles Center
Thu 12:57:00 AM 33.7019 -114.8408 278° West 422 486 33,900 -49 Descending Los Angeles Center
Thu 12:58:01 AM 33.7203 -115.0069 278° West 420 483 33,900  Level Los Angeles Center
Thu 12:59:03 AM 33.7350 -115.1472 277° West 424 488 33,900 49 Level Los Angeles Center
Thu 01:00:04 AM 33.7508 -115.2889 278° West 428 493 34,000 49 Climbing Los Angeles Center
Thu 01:01:06 AM 33.7672 -115.4297 278° West 428 493 34,000  Level Los Angeles Center
Thu 01:02:07 AM 33.7783 -115.5414 277° West 426 490 34,000 -787 Level Los Angeles Center
Thu 01:03:08 AM 33.7958 -115.7061 277° West 420 483 32,400 -2,000 Descending Los Angeles Center
Thu 01:04:10 AM 33.8114 -115.8483 278° West 430 495 29,900 -1,805 Descending Los Angeles Center
Thu 01:05:11 AM 33.8272 -115.9964 277° West 443 510 28,700 -2,508 Descending Los Angeles Center
Thu 01:06:12 AM 33.8447 -116.1711 277° West 442 509 24,800 -3,512 Descending Los Angeles Center
Thu 01:07:14 AM 33.8581 -116.3106 277° West 428 493 21,500 -3,122 Descending Los Angeles Center
Thu 01:08:15 AM 33.8725 -116.4511 277° West 425 489 18,400 -2,852 Descending Los Angeles Center
Thu 01:09:16 AM 33.8775 -116.5842 273° West 406 467 15,700 -2,195 Descending Los Angeles Center
Thu 01:10:18 AM 33.8836 -116.7136 273° West 393 452 13,900 -878 Descending Los Angeles Center
Thu 01:11:19 AM 33.8889 -116.8172 274° West 315 362 13,900 -639 Level Los Angeles Center
Thu 01:12:20 AM 33.9078 -116.9008 285° West 270 311 12,600 -2,077 Descending Los Angeles Center
Thu 01:12:37 AM 33.9167 -116.9333 288° West 280 322 11,200 -2,104 Descending Southern California TRACON
Thu 01:13:37 AM 33.9500 -117.0167 296° West 272 313 9,900 -1,050 Descending Southern California TRACON
Thu 01:14:37 AM 33.9667 -117.1167 281° West 245 282 9,100 -850 Descending Southern California TRACON
Thu 01:15:37 AM 34.0000 -117.1833 301° West 210 242 8,200 -950 Descending Southern California TRACON
Thu 01:16:37 AM 34.0167 -117.2333 292° West 181 208 7,200 -1,150 Descending Southern California TRACON
Thu 01:17:37 AM 34.0333 -117.2833 292° West 178 205 5,900 -1,289 Descending Southern California TRACON
Thu 01:18:38 AM 34.0500 -117.3500 287° West 190 219 4,600 -1,041 Descending Southern California TRACON
Thu 01:19:38 AM 34.0500 -117.4000 270° West 172 198 3,800 -900 Descending Southern California TRACON
Thu 01:20:38 AM 34.0500 -117.4667 270° West 166 191 2,800 -850 Descending Southern California TRACON
Thu 01:21:38 AM 34.0500 -117.5167 270° West 138 159 2,100 -700 Descending Southern California TRACON
Thu 01:22:38 AM 34.0500 -117.5500 270° West 138 159 1,400 -700 Descending Southern California TRACON

Login

Don't have an account? Register now (free) for customized features, flight alerts, and more!